Time;durP1;ratioP1;P1;durP2;ratioP2;P2;SDS_P1;SDS_P2;PMS_P1;PMS_P2;Temp;Humidity;BMP_temperature;BMP_pressure;BME280_temperature;BME280_humidity;BME280_pressure;Samples;Min_cycle;Max_cycle;Signal;HPM_P1;HPM_P2
2022/10/04 00:02:18;;;;;;;1.17;0.90;;;13.30;99.90;;;;;;5082994;28;20554;-85
2022/10/04 00:04:58;;;;;;;1.20;0.88;;;13.40;99.90;;;;;;5063589;28;20055;-85
2022/10/04 00:07:27;;;;;;;1.13;0.85;;;13.50;99.90;;;;;;5027093;28;20515;-86
2022/10/04 00:10:14;;;;;;;0.75;0.70;;;13.50;99.90;;;;;;5042882;28;20546;-85
2022/10/04 00:12:47;;;;;;;1.52;1.02;;;13.60;99.90;;;;;;5029558;28;20079;-85
2022/10/04 00:15:19;;;;;;;1.10;1.00;;;13.70;99.90;;;;;;5026881;28;20404;-85
2022/10/04 00:18:07;;;;;;;0.65;0.60;;;13.70;99.90;;;;;;5042748;28;20053;-85
2022/10/04 00:20:54;;;;;;;0.77;0.70;;;13.80;99.90;;;;;;5058809;28;20051;-85
2022/10/04 00:23:27;;;;;;;0.85;0.73;;;13.90;99.90;;;;;;5042307;28;20048;-86
2022/10/04 00:26:14;;;;;;;0.95;0.75;;;13.90;99.90;;;;;;5061728;28;20052;-85
2022/10/04 00:28:43;;;;;;;1.25;0.80;;;14.00;99.90;;;;;;5068757;28;20424;-85
2022/10/04 00:31:19;;;;;;;1.02;0.90;;;14.00;99.90;;;;;;5066564;28;20059;-85
2022/10/04 00:34:07;;;;;;;1.30;1.02;;;14.00;99.90;;;;;;5066677;28;20498;-84
2022/10/04 00:36:44;;;;;;;0.65;0.65;;;14.10;99.90;;;;;;5062268;28;20048;-85
2022/10/04 00:39:16;;;;;;;1.10;0.90;;;14.10;99.90;;;;;;5049864;28;20454;-85
2022/10/04 00:41:46;;;;;;;1.00;0.80;;;14.10;99.90;;;;;;5050441;28;20059;-85
2022/10/04 00:44:21;;;;;;;0.82;0.73;;;14.20;99.90;;;;;;5082698;28;20054;-87
2022/10/04 00:46:48;;;;;;;1.02;0.85;;;14.20;99.90;;;;;;5050513;28;20052;-86
2022/10/04 00:49:16;;;;;;;1.00;0.77;;;14.20;99.90;;;;;;5049118;28;20307;-86
2022/10/04 00:51:45;;;;;;;0.95;0.85;;;14.30;99.90;;;;;;5049810;28;20186;-86
2022/10/04 00:54:17;;;;;;;1.05;0.90;;;14.30;99.90;;;;;;5048228;28;20044;-86
2022/10/04 00:56:49;;;;;;;1.08;0.60;;;14.40;99.90;;;;;;5030312;28;20055;-86
2022/10/04 00:59:28;;;;;;;0.55;0.55;;;14.40;99.90;;;;;;5030593;28;20102;-86
2022/10/04 01:02:00;;;;;;;0.82;0.60;;;14.40;99.90;;;;;;5030245;28;20491;-87
2022/10/04 01:04:37;;;;;;;1.02;0.80;;;14.50;99.90;;;;;;5045506;28;20048;-86
2022/10/04 01:07:04;;;;;;;0.88;0.52;;;14.50;99.90;;;;;;5047054;28;20682;-86
2022/10/04 01:09:32;;;;;;;0.88;0.70;;;14.50;99.90;;;;;;5029355;28;20295;-86
2022/10/04 01:12:05;;;;;;;0.70;0.60;;;14.50;99.90;;;;;;5029405;28;20041;-86
2022/10/04 01:14:59;;;;;;;0.75;0.70;;;14.60;99.90;;;;;;5029645;28;20059;-85
2022/10/04 01:17:25;;;;;;;0.60;0.60;;;14.60;99.90;;;;;;5057789;28;20052;-85
2022/10/04 01:19:52;;;;;;;0.57;0.50;;;14.60;99.90;;;;;;5048668;28;20058;-85
2022/10/04 01:22:42;;;;;;;0.45;0.45;;;14.60;99.90;;;;;;5048946;28;20417;-85
2022/10/04 01:25:08;;;;;;;0.50;0.40;;;14.70;99.90;;;;;;5067201;28;20687;-85
2022/10/04 01:27:40;;;;;;;0.50;0.50;;;14.70;99.90;;;;;;5038869;28;20134;-85
2022/10/04 01:30:10;;;;;;;0.43;0.35;;;14.70;99.90;;;;;;5033048;28;20510;-85
2022/10/04 01:32:38;;;;;;;0.40;0.40;;;14.70;99.90;;;;;;5050097;28;20071;-85
2022/10/04 01:35:08;;;;;;;0.93;0.60;;;14.70;99.90;;;;;;5033426;28;20408;-85
2022/10/04 01:37:36;;;;;;;0.65;0.57;;;14.70;99.90;;;;;;5068961;28;20055;-85
2022/10/04 01:40:03;;;;;;;0.82;0.60;;;14.70;99.90;;;;;;5056329;28;20052;-84
2022/10/04 01:42:36;;;;;;;0.80;0.60;;;14.80;99.90;;;;;;5055480;28;20044;-84
2022/10/04 01:45:14;;;;;;;0.60;0.52;;;14.80;99.90;;;;;;5056579;28;20044;-85
2022/10/04 01:47:45;;;;;;;0.90;0.65;;;14.80;99.90;;;;;;5034556;28;20091;-85
2022/10/04 01:50:15;;;;;;;0.70;0.60;;;14.90;99.90;;;;;;5034923;28;20718;-85
2022/10/04 01:52:45;;;;;;;0.90;0.63;;;14.80;99.90;;;;;;5020738;28;20053;-85
2022/10/04 01:55:12;;;;;;;0.40;0.40;;;14.90;99.90;;;;;;5051184;28;20049;-85
2022/10/04 01:58:09;;;;;;;0.63;0.63;;;14.90;99.90;;;;;;5051300;28;20084;-86
2022/10/04 02:00:44;;;;;;;1.13;0.80;;;14.90;99.90;;;;;;5052325;28;20059;-87
2022/10/04 02:03:25;;;;;;;0.55;0.50;;;14.90;99.90;;;;;;5052246;28;20480;-87
2022/10/04 02:05:55;;;;;;;0.65;0.65;;;15.00;99.90;;;;;;5036386;28;20056;-86
2022/10/04 02:08:28;;;;;;;0.40;0.40;;;15.00;99.90;;;;;;5020169;28;20045;-87
2022/10/04 02:10:55;;;;;;;0.37;0.37;;;15.00;99.90;;;;;;5036853;28;20068;-87
2022/10/04 02:13:23;;;;;;;0.38;0.38;;;15.00;99.90;;;;;;5047136;28;20059;-86
2022/10/04 02:15:50;;;;;;;0.57;0.47;;;15.00;99.90;;;;;;5039878;28;20048;-86
2022/10/04 02:18:20;;;;;;;0.50;0.50;;;15.00;99.90;;;;;;5039305;28;20102;-87
2022/10/04 02:20:48;;;;;;;0.43;0.30;;;15.10;99.90;;;;;;5038746;28;20056;-87
2022/10/04 02:23:17;;;;;;;0.38;0.38;;;15.10;99.90;;;;;;5048633;28;20066;-87
2022/10/04 02:25:43;;;;;;;2.38;0.65;;;15.10;99.90;;;;;;5059479;28;20052;-87
2022/10/04 02:28:12;;;;;;;0.38;0.38;;;15.10;99.90;;;;;;5059274;28;20055;-87
2022/10/04 02:30:41;;;;;;;0.73;0.40;;;15.10;99.90;;;;;;5058124;28;20048;-86
2022/10/04 02:33:09;;;;;;;0.50;0.50;;;15.20;99.90;;;;;;5048676;28;20055;-87
2022/10/04 02:35:54;;;;;;;0.90;0.60;;;15.20;99.90;;;;;;5037740;28;20556;-87
2022/10/04 02:38:22;;;;;;;0.43;0.40;;;15.20;99.90;;;;;;5037243;28;20056;-87
2022/10/04 02:40:57;;;;;;;0.73;0.50;;;15.20;99.90;;;;;;5054836;28;20139;-87
2022/10/04 02:43:40;;;;;;;0.55;0.50;;;15.20;99.90;;;;;;5035858;28;20060;-86
2022/10/04 02:46:12;;;;;;;0.82;0.63;;;15.20;99.90;;;;;;5051756;28;20614;-87
2022/10/04 02:48:47;;;;;;;1.02;0.73;;;15.20;99.90;;;;;;5050849;28;20061;-86
2022/10/04 02:51:35;;;;;;;0.40;0.40;;;15.30;99.90;;;;;;5034138;28;20053;-87
2022/10/04 02:54:28;;;;;;;0.63;0.60;;;15.30;99.90;;;;;;5071432;28;20060;-86
2022/10/04 02:56:55;;;;;;;0.95;0.70;;;15.30;99.90;;;;;;5055128;28;20056;-86
2022/10/04 02:59:22;;;;;;;0.73;0.52;;;15.30;99.90;;;;;;5038091;28;20052;-86
2022/10/04 03:01:54;;;;;;;0.63;0.52;;;15.30;99.90;;;;;;5038436;28;20048;-86
2022/10/04 03:04:25;;;;;;;0.68;0.50;;;15.30;99.90;;;;;;5035716;28;20064;-86
2022/10/04 03:06:52;;;;;;;1.02;0.57;;;15.40;99.90;;;;;;5018991;28;20127;-87
2022/10/04 03:09:20;;;;;;;0.57;0.40;;;15.30;99.90;;;;;;5018669;28;20049;-86
2022/10/04 03:11:53;;;;;;;0.60;0.50;;;15.30;99.90;;;;;;5020016;28;20136;-86
2022/10/04 03:14:22;;;;;;;0.60;0.50;;;15.30;99.90;;;;;;5032826;28;20055;-87
2022/10/04 03:16:52;;;;;;;2.45;0.98;;;15.30;99.90;;;;;;5050884;28;20500;-86
2022/10/04 03:19:21;;;;;;;0.38;0.38;;;15.30;99.90;;;;;;5050803;28;20077;-85
2022/10/04 03:21:49;;;;;;;0.85;0.60;;;15.30;99.90;;;;;;5050546;28;20052;-86
2022/10/04 03:24:28;;;;;;;0.90;0.68;;;15.30;99.90;;;;;;5050253;28;20048;-85
2022/10/04 03:26:55;;;;;;;0.30;0.30;;;15.30;99.90;;;;;;5050774;28;20051;-86
2022/10/04 03:29:24;;;;;;;0.35;0.35;;;15.20;99.90;;;;;;5050576;28;20056;-86
2022/10/04 03:31:53;;;;;;;0.52;0.50;;;15.30;99.90;;;;;;5051359;28;20060;-86
2022/10/04 03:34:24;;;;;;;0.30;0.30;;;15.20;99.90;;;;;;5049576;28;20056;-87
2022/10/04 03:36:52;;;;;;;0.30;0.30;;;15.20;99.90;;;;;;5050873;28;20075;-86
2022/10/04 03:39:32;;;;;;;0.30;0.30;;;15.20;99.90;;;;;;5050497;28;20048;-86
2022/10/04 03:42:04;;;;;;;0.55;0.50;;;15.20;99.90;;;;;;5050499;28;20049;-86
2022/10/04 03:44:31;;;;;;;0.40;0.40;;;15.20;99.90;;;;;;5058078;28;20060;-87
2022/10/04 03:46:58;;;;;;;0.70;0.47;;;15.20;99.90;;;;;;5056916;28;20055;-85
2022/10/04 03:49:34;;;;;;;0.60;0.50;;;15.20;99.90;;;;;;5056454;28;20064;-86
2022/10/04 03:52:00;;;;;;;0.93;0.50;;;15.30;99.90;;;;;;5057312;28;20127;-86
2022/10/04 03:54:27;;;;;;;0.60;0.43;;;15.30;99.90;;;;;;5057078;28;20209;-86
2022/10/04 03:56:54;;;;;;;0.75;0.50;;;15.30;99.90;;;;;;5057077;28;20552;-86
2022/10/04 03:59:23;;;;;;;0.40;0.40;;;15.30;99.90;;;;;;5056765;28;20054;-86
2022/10/04 04:02:01;;;;;;;0.65;0.60;;;15.30;99.90;;;;;;5056978;28;20062;-87
2022/10/04 04:04:38;;;;;;;1.10;0.50;;;15.40;99.90;;;;;;5051844;28;20065;-85
2022/10/04 04:07:06;;;;;;;0.65;0.40;;;15.30;99.90;;;;;;5049947;28;20059;-87
2022/10/04 04:09:59;;;;;;;0.60;0.50;;;15.40;99.90;;;;;;5017105;28;20059;-86
2022/10/04 04:12:35;;;;;;;0.55;0.50;;;15.40;99.90;;;;;;5052501;28;20534;-86
2022/10/04 04:15:02;;;;;;;0.40;0.40;;;15.40;99.90;;;;;;5089924;28;20124;-86
2022/10/04 04:17:43;;;;;;;0.40;0.40;;;15.40;99.90;;;;;;5057092;28;20138;-86
2022/10/04 04:20:30;;;;;;;0.70;0.47;;;15.50;99.90;;;;;;5057953;28;20146;-86
2022/10/04 04:23:03;;;;;;;0.30;0.30;;;15.50;99.90;;;;;;5072964;28;20484;-86
2022/10/04 04:25:31;;;;;;;0.45;0.40;;;15.50;99.90;;;;;;5057258;28;20050;-87
2022/10/04 04:28:26;;;;;;;0.45;0.35;;;15.50;99.90;;;;;;5057044;28;20043;-87
2022/10/04 04:31:21;;;;;;;0.45;0.40;;;15.60;99.90;;;;;;5059691;28;20044;-86
2022/10/04 04:33:58;;;;;;;0.20;0.20;;;15.60;99.90;;;;;;5057016;28;20055;-87
2022/10/04 04:36:25;;;;;;;0.50;0.40;;;15.60;99.90;;;;;;5038073;28;20407;-86
2022/10/04 04:41:39;;;;;;;0.40;0.40;;;15.60;99.90;;;;;;5055447;28;20059;-86
2022/10/04 04:44:15;;;;;;;0.55;0.40;;;15.60;99.90;;;;;;5042942;28;20048;-85
2022/10/04 04:46:43;;;;;;;0.52;0.45;;;15.60;99.90;;;;;;5047671;28;20056;-86
2022/10/04 04:49:10;;;;;;;0.40;0.40;;;15.60;99.90;;;;;;5032066;28;20079;-85
2022/10/04 04:51:48;;;;;;;0.43;0.40;;;15.60;99.90;;;;;;5033677;28;20060;-85
2022/10/04 04:54:16;;;;;;;1.10;0.60;;;15.60;99.90;;;;;;5049082;28;20059;-86
2022/10/04 04:56:43;;;;;;;0.40;0.40;;;15.60;99.90;;;;;;5053870;28;20051;-86
2022/10/04 04:59:10;;;;;;;0.30;0.30;;;15.60;99.90;;;;;;5034039;28;20056;-85
2022/10/04 05:01:45;;;;;;;0.73;0.43;;;15.60;99.90;;;;;;5035259;28;20052;-85
2022/10/04 05:04:12;;;;;;;0.80;0.40;;;15.60;99.90;;;;;;5060399;28;20099;-86
2022/10/04 05:06:43;;;;;;;0.40;0.40;;;15.60;99.90;;;;;;5052956;28;20147;-86
2022/10/04 05:09:34;;;;;;;0.50;0.50;;;15.60;99.90;;;;;;5038435;28;20055;-86
2022/10/04 05:12:18;;;;;;;0.68;0.40;;;15.60;99.90;;;;;;5033523;28;20049;-85
2022/10/04 05:14:48;;;;;;;0.63;0.40;;;15.60;99.90;;;;;;5033322;28;20097;-85
2022/10/04 05:17:17;;;;;;;0.73;0.35;;;15.70;99.90;;;;;;5035578;28;20492;-86
2022/10/04 05:19:45;;;;;;;0.20;0.20;;;15.60;99.90;;;;;;5027064;28;20045;-87
2022/10/04 05:22:12;;;;;;;0.30;0.28;;;15.70;99.90;;;;;;5032011;28;20074;-85
2022/10/04 05:24:41;;;;;;;0.30;0.30;;;15.60;99.90;;;;;;5042655;28;20136;-87
2022/10/04 05:27:31;;;;;;;0.40;0.40;;;15.70;99.90;;;;;;5039289;28;20052;-86
2022/10/04 05:30:20;;;;;;;0.35;0.35;;;15.70;99.90;;;;;;5036568;28;20068;-87
2022/10/04 05:32:59;;;;;;;0.20;0.20;;;15.70;99.90;;;;;;5050694;28;20053;-85
2022/10/04 05:35:26;;;;;;;0.40;0.32;;;15.60;99.90;;;;;;5033017;28;20067;-83
2022/10/04 05:38:07;;;;;;;0.50;0.50;;;15.70;99.90;;;;;;5028018;28;20049;-83
2022/10/04 05:40:45;;;;;;;0.30;0.30;;;15.60;99.90;;;;;;5060517;28;20055;-83
2022/10/04 05:43:30;;;;;;;0.50;0.50;;;15.60;99.90;;;;;;5037538;28;20490;-86
2022/10/04 05:46:14;;;;;;;0.60;0.35;;;15.60;99.90;;;;;;5031854;28;20200;-91
2022/10/04 05:48:42;;;;;;;0.55;0.50;;;15.60;99.90;;;;;;5042590;28;20144;-88
2022/10/04 05:51:29;;;;;;;0.77;0.38;;;15.50;99.90;;;;;;5044120;28;20075;-83
2022/10/04 05:54:00;;;;;;;0.30;0.30;;;15.60;99.90;;;;;;5024540;28;20130;-84
2022/10/04 05:56:30;;;;;;;0.47;0.47;;;15.60;99.90;;;;;;5027759;28;20041;-85
2022/10/04 05:59:34;;;;;;;0.63;0.43;;;15.60;99.90;;;;;;5055840;28;20056;-85
2022/10/04 06:02:04;;;;;;;0.45;0.35;;;15.50;99.90;;;;;;5048951;28;20057;-84
2022/10/04 06:04:55;;;;;;;0.60;0.47;;;15.50;99.90;;;;;;5043902;28;20813;-82
2022/10/04 06:07:42;;;;;;;0.40;0.40;;;15.50;99.90;;;;;;5043314;28;20806;-81
2022/10/04 06:10:28;;;;;;;0.52;0.38;;;15.50;99.90;;;;;;5071066;28;20222;-81
2022/10/04 06:13:06;;;;;;;1.13;0.60;;;15.50;99.90;;;;;;5060483;28;20489;-83
2022/10/04 06:15:48;;;;;;;0.40;0.40;;;15.50;99.90;;;;;;5019683;28;20053;-83
2022/10/04 06:18:39;;;;;;;0.30;0.30;;;15.50;99.90;;;;;;5046224;28;20067;-82
2022/10/04 06:21:24;;;;;;;0.38;0.38;;;15.50;99.90;;;;;;5045309;28;20051;-84
2022/10/04 06:24:00;;;;;;;0.30;0.30;;;15.50;99.90;;;;;;5042167;28;20530;-83
2022/10/04 06:26:34;;;;;;;0.60;0.50;;;15.60;99.90;;;;;;5024399;28;20049;-83
2022/10/04 06:29:04;;;;;;;0.88;0.40;;;15.60;99.90;;;;;;5049636;28;20056;-83
2022/10/04 06:32:12;;;;;;;0.68;0.40;;;15.60;99.90;;;;;;5043889;28;20053;-83
2022/10/04 06:34:47;;;;;;;0.68;0.60;;;15.60;99.90;;;;;;5045254;28;20052;-83
2022/10/04 06:37:36;;;;;;;0.38;0.38;;;15.60;99.90;;;;;;5064464;28;20674;-82
2022/10/04 06:40:18;;;;;;;0.30;0.30;;;15.60;99.90;;;;;;5075795;28;20054;-82
2022/10/04 06:43:07;;;;;;;0.20;0.20;;;15.70;99.90;;;;;;5064552;28;20063;-82
2022/10/04 06:45:39;;;;;;;0.22;0.22;;;15.70;99.90;;;;;;5081305;28;20147;-83
2022/10/04 06:48:40;;;;;;;0.52;0.30;;;15.70;99.90;;;;;;5081590;28;20159;-83
2022/10/04 06:51:32;;;;;;;0.47;0.43;;;15.80;99.90;;;;;;5068375;28;20380;-83
2022/10/04 06:54:37;;;;;;;0.40;0.32;;;15.80;99.90;;;;;;5045642;28;20060;-83
2022/10/04 06:57:25;;;;;;;0.20;0.20;;;15.90;99.90;;;;;;5061437;28;20060;-82
2022/10/04 07:00:27;;;;;;;0.32;0.32;;;15.80;99.90;;;;;;5055146;28;20163;-83
2022/10/04 07:03:14;;;;;;;0.57;0.30;;;15.90;99.90;;;;;;5032299;28;20060;-82
2022/10/04 07:05:51;;;;;;;0.68;0.40;;;15.90;99.90;;;;;;5048087;28;20071;-82
2022/10/04 07:08:32;;;;;;;0.30;0.30;;;15.90;99.90;;;;;;5024597;28;20448;-83
2022/10/04 07:11:21;;;;;;;0.40;0.40;;;15.90;99.90;;;;;;5041859;28;20378;-82
2022/10/04 07:14:01;;;;;;;0.50;0.35;;;15.90;99.90;;;;;;5051496;28;20048;-83
2022/10/04 07:16:31;;;;;;;0.80;0.50;;;16.00;99.90;;;;;;5040545;28;20056;-82
2022/10/04 07:19:09;;;;;;;0.85;0.50;;;16.00;99.90;;;;;;5049117;28;20052;-83
2022/10/04 07:21:41;;;;;;;0.32;0.32;;;16.10;99.90;;;;;;5050726;28;20427;-83
2022/10/04 07:24:17;;;;;;;1.05;0.60;;;16.10;99.90;;;;;;5034444;28;20056;-84
2022/10/04 07:26:48;;;;;;;0.55;0.30;;;16.10;99.90;;;;;;5024248;28;20045;-83
2022/10/04 07:29:21;;;;;;;0.43;0.30;;;16.20;99.90;;;;;;5037194;28;20464;-83
2022/10/04 07:32:10;;;;;;;0.50;0.50;;;16.20;99.90;;;;;;5025005;28;20063;-83
2022/10/04 07:34:44;;;;;;;0.40;0.30;;;16.20;99.90;;;;;;5031378;28;20592;-82
2022/10/04 07:37:12;;;;;;;0.47;0.30;;;16.20;99.90;;;;;;5040230;28;20377;-83
2022/10/04 07:39:49;;;;;;;0.30;0.30;;;16.20;99.90;;;;;;5023900;28;20044;-83
2022/10/04 07:42:24;;;;;;;0.50;0.40;;;16.20;99.90;;;;;;5048791;28;20120;-83
2022/10/04 07:45:10;;;;;;;0.30;0.30;;;16.20;99.90;;;;;;5067193;28;20055;-82
2022/10/04 07:47:37;;;;;;;0.30;0.30;;;16.30;99.90;;;;;;5043579;28;20051;-82
2022/10/04 07:50:19;;;;;;;0.30;0.30;;;16.40;99.90;;;;;;5040433;28;20141;-83
2022/10/04 07:52:53;;;;;;;0.20;0.20;;;16.50;99.90;;;;;;5017892;28;20044;-82
2022/10/04 07:55:24;;;;;;;0.30;0.30;;;16.50;99.90;;;;;;5034963;28;20049;-83
2022/10/04 07:58:13;;;;;;;0.85;0.40;;;16.60;99.90;;;;;;5039580;28;20057;-83
2022/10/04 08:01:01;;;;;;;0.30;0.30;;;16.60;99.90;;;;;;5043413;28;20478;-84
2022/10/04 08:04:02;;;;;;;0.52;0.43;;;16.70;99.90;;;;;;5060785;28;20576;-84
2022/10/04 08:06:45;;;;;;;0.75;0.45;;;16.80;99.90;;;;;;5077690;28;20070;-83
2022/10/04 08:09:12;;;;;;;1.83;0.50;;;16.80;99.90;;;;;;5055862;28;20048;-83
2022/10/04 08:11:48;;;;;;;1.45;0.60;;;16.90;99.90;;;;;;5043407;28;20056;-80
2022/10/04 08:14:53;;;;;;;0.57;0.38;;;16.90;99.90;;;;;;5044839;28;20546;-83
2022/10/04 08:17:36;;;;;;;0.75;0.47;;;17.00;99.90;;;;;;5034875;28;20092;-83
2022/10/04 08:20:18;;;;;;;0.38;0.38;;;17.00;99.90;;;;;;5044605;28;20122;-83
2022/10/04 08:23:19;;;;;;;0.95;0.40;;;17.00;99.90;;;;;;5042485;28;20056;-83
2022/10/04 08:26:17;;;;;;;0.40;0.40;;;17.00;99.90;;;;;;5026667;28;20171;-83
2022/10/04 08:32:00;;;;;;;0.40;0.35;;;17.10;99.90;;;;;;5024682;28;20052;-83
2022/10/04 08:35:05;;;;;;;0.50;0.40;;;17.20;99.90;;;;;;5036372;28;20049;-82
2022/10/04 08:37:34;;;;;;;1.27;0.70;;;17.20;99.90;;;;;;5028512;28;20135;-83
2022/10/04 08:40:16;;;;;;;0.73;0.65;;;17.30;99.90;;;;;;5042436;28;20052;-83
2022/10/04 08:43:01;;;;;;;1.42;0.63;;;17.30;99.90;;;;;;5041368;28;20080;-84
2022/10/04 08:45:37;;;;;;;0.50;0.50;;;17.40;99.90;;;;;;5079253;28;20048;-84
2022/10/04 08:48:09;;;;;;;0.40;0.30;;;17.40;99.90;;;;;;5061301;28;20113;-83
2022/10/04 08:50:59;;;;;;;0.63;0.38;;;17.40;99.90;;;;;;5077792;28;20502;-84
2022/10/04 08:53:39;;;;;;;1.05;0.40;;;17.40;99.90;;;;;;5064215;28;20128;-83
2022/10/04 08:56:23;;;;;;;0.70;0.30;;;17.30;99.90;;;;;;5062335;28;20131;-83
2022/10/04 08:59:08;;;;;;;0.80;0.45;;;17.30;99.90;;;;;;5061814;28;20040;-83
2022/10/04 09:02:11;;;;;;;1.50;1.25;;;17.20;99.90;;;;;;5077834;28;20047;-84
2022/10/04 09:04:53;;;;;;;1.60;0.60;;;17.10;99.90;;;;;;5048918;28;20418;-84
2022/10/04 09:07:29;;;;;;;1.05;0.43;;;17.10;99.90;;;;;;5062087;28;20278;-84
2022/10/04 09:10:35;;;;;;;0.90;0.60;;;17.10;99.90;;;;;;5077539;28;20055;-83
2022/10/04 09:13:46;;;;;;;0.50;0.20;;;17.00;99.90;;;;;;5061985;28;20390;-84
2022/10/04 09:16:25;;;;;;;0.50;0.50;;;17.00;99.90;;;;;;5039981;28;20064;-83
2022/10/04 09:19:21;;;;;;;0.80;0.45;;;17.10;99.90;;;;;;5057036;28;20259;-83
2022/10/04 09:21:54;;;;;;;0.68;0.40;;;17.10;99.90;;;;;;5040858;28;20098;-83
2022/10/04 09:24:32;;;;;;;0.32;0.30;;;17.20;99.90;;;;;;5072808;28;20424;-83
2022/10/04 09:27:18;;;;;;;0.98;0.60;;;17.20;99.90;;;;;;5061883;28;20450;-84
2022/10/04 09:30:18;;;;;;;0.60;0.50;;;17.20;99.90;;;;;;5052858;28;20478;-83
2022/10/04 09:32:50;;;;;;;0.28;0.20;;;17.30;99.90;;;;;;5077453;28;20056;-83
2022/10/04 09:35:17;;;;;;;1.85;0.55;;;17.40;99.90;;;;;;5078153;28;20062;-83
2022/10/04 09:37:56;;;;;;;0.75;0.47;;;17.50;99.90;;;;;;5077388;28;20059;-83
2022/10/04 09:40:47;;;;;;;1.95;0.40;;;17.60;99.90;;;;;;5060743;28;20094;-84
2022/10/04 09:43:20;;;;;;;2.42;0.95;;;17.60;99.90;;;;;;5072885;28;20520;-84
2022/10/04 09:45:53;;;;;;;1.77;0.60;;;17.60;99.90;;;;;;5059104;28;20056;-83
2022/10/04 09:48:42;;;;;;;1.20;0.70;;;17.80;99.90;;;;;;5043315;28;20126;-83
2022/10/04 09:51:40;;;;;;;0.55;0.50;;;18.00;99.90;;;;;;5048256;28;20071;-83
2022/10/04 09:54:45;;;;;;;1.10;0.60;;;18.20;99.90;;;;;;5068047;28;20063;-84
2022/10/04 09:57:29;;;;;;;0.52;0.50;;;18.30;99.90;;;;;;5062417;28;20665;-83
2022/10/04 10:00:22;;;;;;;0.70;0.45;;;18.30;99.90;;;;;;5039888;28;20040;-83
2022/10/04 10:03:20;;;;;;;0.50;0.40;;;18.40;99.90;;;;;;5079229;28;20059;-83
2022/10/04 10:06:01;;;;;;;0.77;0.60;;;18.50;99.90;;;;;;5066877;28;20089;-84
2022/10/04 10:08:35;;;;;;;1.08;0.65;;;18.50;99.90;;;;;;5048759;28;20157;-83
2022/10/04 10:15:02;;;;;;;0.65;0.52;;;18.50;99.90;;;;;;5082302;28;20067;-83
2022/10/04 10:17:36;;;;;;;0.30;0.30;;;18.20;99.90;;;;;;5064828;28;20139;-83
2022/10/04 10:20:15;;;;;;;0.70;0.30;;;18.00;99.90;;;;;;5064404;28;20058;-83
2022/10/04 10:22:59;;;;;;;1.65;0.52;;;18.00;99.90;;;;;;5080765;28;20055;-83
2022/10/04 10:25:32;;;;;;;2.28;0.60;;;17.90;99.90;;;;;;5048332;28;20400;-82
2022/10/04 10:28:13;;;;;;;1.38;0.50;;;17.90;99.90;;;;;;5080917;28;20083;-84
2022/10/04 10:31:04;;;;;;;1.35;0.52;;;18.00;99.90;;;;;;5081131;28;20055;-83
2022/10/04 10:33:45;;;;;;;0.93;0.60;;;18.10;99.90;;;;;;5074397;28;20130;-83
2022/10/04 10:36:40;;;;;;;0.30;0.30;;;18.30;99.90;;;;;;5043472;28;20048;-83
2022/10/04 10:39:40;;;;;;;0.20;0.20;;;18.40;99.90;;;;;;5061930;28;20080;-83
2022/10/04 10:42:45;;;;;;;0.40;0.40;;;18.60;99.90;;;;;;5044605;28;20153;-83
2022/10/04 10:45:20;;;;;;;0.40;0.40;;;18.70;99.90;;;;;;5040428;28;20076;-83
2022/10/04 10:47:55;;;;;;;0.22;0.20;;;18.70;99.90;;;;;;5007255;28;20358;-83
2022/10/04 10:50:59;;;;;;;0.20;0.20;;;18.70;99.90;;;;;;5049237;28;20511;-83
2022/10/04 10:54:13;;;;;;;0.20;0.20;;;18.80;99.90;;;;;;5049138;28;20044;-83
2022/10/04 10:57:08;;;;;;;0.30;0.30;;;19.00;99.90;;;;;;5063373;28;20059;-83
2022/10/04 10:59:53;;;;;;;0.30;0.28;;;19.20;99.90;;;;;;5074292;28;20227;-83
2022/10/04 11:02:36;;;;;;;0.10;0.10;;;19.30;99.90;;;;;;5061089;28;20273;-83
2022/10/04 11:05:47;;;;;;;0.13;0.13;;;19.40;99.90;;;;;;5040612;28;20048;-84
2022/10/04 11:08:35;;;;;;;0.20;0.20;;;19.60;99.90;;;;;;5051725;28;20256;-82
2022/10/04 11:11:12;;;;;;;0.20;0.20;;;19.60;99.90;;;;;;5051859;28;20056;-83
2022/10/04 11:13:56;;;;;;;0.22;0.20;;;19.70;99.90;;;;;;5057778;28;20055;-83
2022/10/04 11:16:34;;;;;;;0.75;0.20;;;19.60;99.90;;;;;;5036630;28;20140;-84
2022/10/04 11:19:41;;;;;;;0.52;0.22;;;19.50;99.90;;;;;;5027283;28;20048;-84
2022/10/04 11:22:26;;;;;;;0.30;0.20;;;19.30;99.90;;;;;;5065975;28;20049;-84
2022/10/04 11:24:58;;;;;;;0.45;0.17;;;19.20;99.90;;;;;;5052990;28;20065;-84
2022/10/04 11:27:31;;;;;;;0.50;0.20;;;19.10;99.90;;;;;;5025421;28;20148;-84
2022/10/04 11:30:25;;;;;;;1.73;0.32;;;18.90;99.90;;;;;;5034415;28;20552;-84
2022/10/04 11:33:29;;;;;;;1.00;0.40;;;18.60;99.90;;;;;;5026314;28;20057;-83
2022/10/04 11:36:40;;;;;;;0.80;0.40;;;18.40;99.90;;;;;;5052930;28;20044;-84
2022/10/04 11:39:29;;;;;;;0.55;0.30;;;18.40;99.90;;;;;;5060144;28;20053;-83
2022/10/04 11:42:04;;;;;;;0.52;0.40;;;18.30;99.90;;;;;;5055197;28;20064;-84
2022/10/04 11:44:54;;;;;;;0.47;0.40;;;18.30;99.90;;;;;;5046280;28;20055;-85
2022/10/04 11:47:40;;;;;;;0.63;0.50;;;18.50;99.90;;;;;;5052823;28;20397;-82
2022/10/04 11:50:20;;;;;;;0.40;0.25;;;18.70;99.90;;;;;;5044095;28;20107;-83
2022/10/04 11:53:31;;;;;;;0.43;0.30;;;18.90;99.90;;;;;;5039783;28;20063;-82
2022/10/04 11:56:12;;;;;;;0.50;0.20;;;19.20;99.90;;;;;;5021959;28;20049;-82
2022/10/04 11:59:02;;;;;;;0.60;0.38;;;19.40;99.90;;;;;;5040464;28;20053;-82
2022/10/04 12:01:53;;;;;;;0.30;0.28;;;19.60;99.90;;;;;;5046533;28;20045;-82
2022/10/04 12:04:44;;;;;;;0.30;0.30;;;19.70;99.90;;;;;;5052148;28;20041;-83
2022/10/04 12:07:26;;;;;;;1.05;0.60;;;19.80;99.90;;;;;;5052459;28;20128;-84
2022/10/04 12:10:11;;;;;;;0.73;0.40;;;19.70;99.90;;;;;;5040530;28;20066;-83
2022/10/04 12:13:13;;;;;;;0.80;0.70;;;19.60;99.90;;;;;;5048802;28;20140;-83
2022/10/04 12:16:09;;;;;;;0.63;0.57;;;19.60;99.90;;;;;;5055093;28;20060;-83
2022/10/04 12:19:05;;;;;;;0.47;0.40;;;19.40;99.90;;;;;;5045365;28;20221;-83
2022/10/04 12:21:50;;;;;;;0.82;0.43;;;19.30;99.90;;;;;;5035580;28;20087;-84
2022/10/04 12:24:46;;;;;;;0.30;0.30;;;19.20;99.90;;;;;;5042723;28;20090;-84
2022/10/04 12:27:51;;;;;;;0.95;0.50;;;19.00;99.90;;;;;;5058447;28;20423;-84
2022/10/04 12:30:41;;;;;;;0.95;0.40;;;18.80;99.90;;;;;;5065903;28;20905;-83
2022/10/04 12:33:20;;;;;;;0.88;0.50;;;18.70;99.90;;;;;;5033691;28;20064;-84
2022/10/04 12:36:23;;;;;;;0.80;0.52;;;18.70;99.90;;;;;;5055409;28;20125;-83
2022/10/04 12:39:51;;;;;;;0.65;0.50;;;18.60;99.90;;;;;;5057634;28;20364;-84
2022/10/04 12:42:24;;;;;;;0.95;0.40;;;18.50;99.90;;;;;;5021433;28;20055;-85
2022/10/04 12:45:16;;;;;;;1.40;0.60;;;18.40;99.90;;;;;;5017160;28;20110;-84
2022/10/04 12:47:49;;;;;;;0.65;0.40;;;18.40;99.90;;;;;;5040901;28;20508;-83
2022/10/04 12:50:25;;;;;;;2.08;0.50;;;18.30;99.90;;;;;;5052687;28;20634;-84
2022/10/04 12:52:52;;;;;;;0.73;0.40;;;18.20;99.90;;;;;;5060600;28;20052;-83
2022/10/04 12:55:46;;;;;;;0.68;0.45;;;18.10;99.90;;;;;;5049384;28;20051;-82
2022/10/04 12:58:35;;;;;;;0.70;0.50;;;18.00;99.90;;;;;;5035223;28;20480;-82
2022/10/04 13:01:29;;;;;;;0.65;0.30;;;18.20;99.90;;;;;;5045786;28;20037;-83
2022/10/04 13:04:22;;;;;;;0.52;0.40;;;18.20;99.90;;;;;;5032406;28;20082;-82
2022/10/04 13:07:14;;;;;;;0.45;0.30;;;18.30;99.90;;;;;;5042068;28;20400;-83
2022/10/04 13:09:41;;;;;;;0.90;0.30;;;18.30;99.90;;;;;;5044913;28;20076;-83
2022/10/04 13:12:37;;;;;;;0.20;0.20;;;18.30;99.90;;;;;;5045862;28;20061;-83
2022/10/04 13:15:10;;;;;;;0.88;0.40;;;18.30;99.90;;;;;;5038690;28;20044;-82
2022/10/04 13:18:02;;;;;;;0.70;0.43;;;18.20;99.90;;;;;;5054408;28;20627;-82
2022/10/04 13:20:44;;;;;;;0.98;0.28;;;18.10;99.90;;;;;;5033247;28;20061;-83
2022/10/04 13:23:14;;;;;;;0.88;0.55;;;18.20;99.90;;;;;;5022845;28;20627;-83
2022/10/04 13:25:51;;;;;;;0.50;0.40;;;18.20;99.90;;;;;;5058307;28;20064;-82
2022/10/04 13:28:32;;;;;;;0.63;0.30;;;18.40;99.90;;;;;;5045182;28;20067;-83
2022/10/04 13:31:31;;;;;;;0.93;0.32;;;18.50;99.90;;;;;;5040978;28;20301;-82
2022/10/04 13:34:14;;;;;;;0.20;0.20;;;18.70;99.90;;;;;;5063967;28;20047;-83
2022/10/04 13:36:53;;;;;;;0.55;0.40;;;18.90;99.90;;;;;;5046199;28;20427;-84
2022/10/04 13:39:38;;;;;;;0.50;0.30;;;19.10;99.90;;;;;;5049600;28;20515;-83
2022/10/04 13:42:20;;;;;;;0.30;0.20;;;19.10;99.90;;;;;;5047922;28;20053;-83
2022/10/04 13:44:59;;;;;;;0.30;0.30;;;19.00;99.90;;;;;;5051243;28;20060;-83
2022/10/04 13:47:44;;;;;;;0.38;0.38;;;19.00;99.90;;;;;;5047150;28;20057;-83
2022/10/04 13:50:16;;;;;;;0.35;0.35;;;18.80;99.90;;;;;;5060551;28;20048;-83
2022/10/04 13:58:54;;;;;;;0.93;0.50;;;18.60;99.90;;;;;;5044895;28;20068;-83
2022/10/04 14:01:35;;;;;;;0.85;0.35;;;18.80;99.90;;;;;;5047681;28;20644;-83
2022/10/04 14:04:27;;;;;;;0.43;0.30;;;18.90;99.90;;;;;;5048853;28;20064;-83
2022/10/04 14:07:33;;;;;;;0.40;0.30;;;19.00;99.90;;;;;;5055595;28;20510;-81
2022/10/04 14:10:20;;;;;;;0.95;0.40;;;19.10;99.90;;;;;;5053214;28;20036;-83
2022/10/04 14:13:04;;;;;;;0.50;0.50;;;18.90;99.90;;;;;;5048776;28;20416;-82